Time;durP1;ratioP1;P1;durP2;ratioP2;P2;SDS_P1;SDS_P2;PMS_P1;PMS_P2;Temp;Humidity;BMP_temperature;BMP_pressure;BME280_temperature;BME280_humidity;BME280_pressure;Samples;Min_cycle;Max_cycle;Signal;HPM_P1;HPM_P2
2022/06/17 00:01:56;;;;;;;14.77;9.45;;;;;;;11.37;91.64;102198.94;10429833;28;20045;-80
2022/06/17 00:06:59;;;;;;;14.90;8.88;;;;;;;11.32;91.96;102200.34;10465458;28;20463;-80
2022/06/17 00:12:00;;;;;;;13.27;8.48;;;;;;;11.31;92.79;102199.47;10429338;28;20088;-80
2022/06/17 00:17:09;;;;;;;15.68;9.68;;;;;;;11.45;93.33;102202.09;10428718;28;20370;-80
2022/06/17 00:22:10;;;;;;;12.23;9.23;;;;;;;11.56;92.45;102185.34;10485617;28;20052;-80
2022/06/17 00:27:10;;;;;;;13.43;8.73;;;;;;;11.60;92.47;102183.81;10452621;28;20551;-79
2022/06/17 00:32:11;;;;;;;15.15;10.43;;;;;;;11.71;93.25;102181.88;10427853;28;20032;-80
2022/06/17 00:37:12;;;;;;;12.40;9.48;;;;;;;11.78;92.45;102173.59;10486715;28;20028;-80
2022/06/17 00:42:14;;;;;;;11.98;9.43;;;;;;;11.80;92.10;102182.47;10389142;28;20090;-80
2022/06/17 00:47:44;;;;;;;11.77;9.90;;;;;;;11.68;92.09;102190.44;10369027;28;20029;-80
2022/06/17 00:52:59;;;;;;;25.95;10.32;;;;;;;11.51;92.21;102184.13;10464634;28;20040;-80
2022/06/17 00:58:00;;;;;;;19.27;9.55;;;;;;;11.44;93.20;102190.66;10437246;28;20569;-80
2022/06/17 01:03:05;;;;;;;10.88;8.52;;;;;;;11.34;93.70;102196.13;10451199;28;20086;-79
2022/06/17 01:13:44;;;;;;;11.55;7.22;;;;;;;11.37;93.55;102198.94;10471892;28;20029;-80
2022/06/17 01:18:45;;;;;;;9.98;7.47;;;;;;;11.37;93.79;102198.06;10442157;28;20381;-79
2022/06/17 01:23:48;;;;;;;11.13;7.65;;;;;;;11.32;94.02;102208.22;10449820;28;20028;-80
2022/06/17 01:28:48;;;;;;;9.63;7.63;;;;;;;11.34;94.48;102200.47;10450682;28;20987;-81
2022/06/17 01:33:49;;;;;;;10.85;7.75;;;;;;;11.42;94.64;102205.41;10465720;28;20049;-80
2022/06/17 01:38:51;;;;;;;10.18;7.65;;;;;;;11.36;94.14;102220.72;10466322;28;20395;-80
2022/06/17 01:44:10;;;;;;;8.50;6.00;;;;;;;11.21;93.83;102217.06;10448757;28;20458;-80
2022/06/17 01:49:19;;;;;;;10.52;7.97;;;;;;;11.12;93.84;102207.78;10451696;28;20054;-80
2022/06/17 01:55:09;;;;;;;13.82;8.13;;;;;;;11.07;94.96;102210.94;10448814;28;20032;-80
2022/06/17 02:00:17;;;;;;;9.32;8.15;;;;;;;10.99;95.73;102202.53;10399701;28;20044;-79
2022/06/17 02:05:17;;;;;;;14.82;10.18;;;;;;;10.94;96.40;102203.94;10465201;28;20078;-80
2022/06/17 02:10:20;;;;;;;13.02;9.13;;;;;;;10.84;97.13;102190.22;10455020;28;20127;-81
2022/06/17 02:15:21;;;;;;;16.05;10.07;;;;;;;10.90;97.79;102192.38;10409175;28;20846;-81
2022/06/17 02:20:22;;;;;;;15.65;10.77;;;;;;;10.85;97.98;102197.28;10437437;28;20056;-80
2022/06/17 02:25:24;;;;;;;15.60;11.57;;;;;;;10.81;97.81;102205.72;10381762;28;20504;-81
2022/06/17 02:30:25;;;;;;;15.18;10.85;;;;;;;10.76;98.50;102209.75;10436357;28;20127;-81
2022/06/17 02:35:37;;;;;;;16.83;10.40;;;;;;;10.65;98.04;102202.88;10432420;28;20043;-81
2022/06/17 02:40:39;;;;;;;14.98;9.77;;;;;;;10.58;97.96;102206.78;10481201;28;20036;-80
2022/06/17 02:45:42;;;;;;;13.52;10.98;;;;;;;10.54;98.40;102199.53;10441090;28;20063;-81
2022/06/17 02:50:42;;;;;;;;;;;;;;;10.53;99.05;102208.19;10431016;28;20048;-81
2022/06/17 02:55:43;;;;;;;15.90;10.98;;;;;;;10.57;99.55;102212.81;10481047;28;19924;-81
2022/06/17 03:00:44;;;;;;;16.60;11.88;;;;;;;10.64;100.00;102217.69;10463821;28;20036;-81
2022/06/17 03:05:45;;;;;;;16.23;11.48;;;;;;;10.57;99.95;102202.34;10448453;28;20032;-81
2022/06/17 03:10:45;;;;;;;13.73;11.20;;;;;;;10.51;100.00;102200.19;10488157;28;20063;-81
2022/06/17 03:15:47;;;;;;;17.10;11.57;;;;;;;10.51;99.97;102194.06;10488382;28;20048;-81
2022/06/17 03:20:47;;;;;;;17.07;13.07;;;;;;;10.45;100.00;102196.28;10454625;28;20071;-81
2022/06/17 03:26:12;;;;;;;14.50;11.00;;;;;;;10.43;100.00;102189.22;10454436;28;20040;-81
2022/06/17 03:31:18;;;;;;;16.77;13.02;;;;;;;10.51;100.00;102194.97;10462911;28;20040;-81
2022/06/17 03:36:32;;;;;;;14.93;11.85;;;;;;;10.71;100.00;102182.34;10455471;28;20035;-80
2022/06/17 03:41:45;;;;;;;17.60;11.70;;;;;;;10.83;100.00;102193.66;10436655;28;20037;-80
2022/06/17 03:47:05;;;;;;;16.58;12.65;;;;;;;10.95;100.00;102206.69;10452122;28;20373;-80
2022/06/17 03:52:14;;;;;;;17.02;12.25;;;;;;;11.03;100.00;102209.81;10453779;28;20071;-80
2022/06/17 03:57:15;;;;;;;13.93;9.70;;;;;;;11.05;100.00;102210.81;10454623;28;20119;-81
2022/06/17 04:02:17;;;;;;;15.07;10.40;;;;;;;11.10;100.00;102226.84;10430903;28;20048;-80
2022/06/17 04:07:17;;;;;;;13.03;10.53;;;;;;;11.22;100.00;102222.44;10445709;28;20135;-80
2022/06/17 04:12:21;;;;;;;14.90;11.38;;;;;;;11.47;100.00;102237.16;10444997;28;20555;-80
2022/06/17 04:17:38;;;;;;;11.77;10.32;;;;;;;11.76;100.00;102230.31;10436515;28;20040;-83
2022/06/17 04:22:39;;;;;;;9.85;8.85;;;;;;;12.06;99.69;102230.47;10466712;28;20044;-79
2022/06/17 04:27:57;;;;;;;11.68;8.75;;;;;;;12.48;96.87;102225.19;10420103;28;20128;-79
2022/06/17 04:33:05;;;;;;;10.15;7.03;;;;;;;12.78;93.77;102215.66;10442858;28;20487;-85
2022/06/17 04:38:05;;;;;;;10.70;8.55;;;;;;;13.05;92.35;102212.84;10466486;28;20583;-81
2022/06/17 04:43:16;;;;;;;12.18;7.50;;;;;;;13.28;91.01;102209.75;10450647;28;20064;-83
2022/06/17 04:48:17;;;;;;;9.57;6.60;;;;;;;13.65;89.47;102211.88;10451483;28;20047;-80
2022/06/17 04:53:17;;;;;;;9.45;7.05;;;;;;;14.18;88.17;102213.06;10453128;28;20061;-80
2022/06/17 04:58:19;;;;;;;9.23;5.85;;;;;;;14.76;85.65;102203.84;10412281;28;20036;-81
2022/06/17 05:03:28;;;;;;;8.63;6.50;;;;;;;15.64;82.67;102195.84;10430791;28;20468;-81
2022/06/17 05:08:42;;;;;;;9.27;5.15;;;;;;;16.33;81.33;102198.19;10450029;28;20044;-82
2022/06/17 05:14:04;;;;;;;8.10;5.30;;;;;;;16.82;74.49;102194.16;10468303;28;20511;-83
2022/06/17 05:19:04;;;;;;;8.95;5.43;;;;;;;16.59;76.71;102182.59;10452958;28;20029;-82
2022/06/17 05:24:05;;;;;;;9.63;7.07;;;;;;;16.39;77.32;102193.16;10481605;28;20471;-83
2022/06/17 05:29:09;;;;;;;7.80;6.32;;;;;;;16.22;80.52;102187.13;10448009;28;20110;-82
2022/06/17 05:34:09;;;;;;;;;;;;;;;16.17;81.03;102166.63;10449151;28;20090;-81
2022/06/17 05:39:10;;;;;;;7.00;4.82;;;;;;;16.24;80.23;102187.19;10483791;28;20430;-81
2022/06/17 05:44:10;;;;;;;8.70;5.88;;;;;;;16.14;81.32;102180.59;10464876;28;20059;-82
2022/06/17 05:49:11;;;;;;;8.32;5.03;;;;;;;16.86;83.10;102187.25;10464899;28;20119;-82
2022/06/17 05:54:11;;;;;;;6.78;5.40;;;;;;;18.95;70.31;102177.59;10482852;28;20377;-82
2022/06/17 05:59:12;;;;;;;9.80;4.70;;;;;;;18.73;70.88;102174.19;10440677;28;20128;-81
2022/06/17 06:04:12;;;;;;;6.72;4.18;;;;;;;18.08;72.76;102180.72;10422617;28;20041;-80
2022/06/17 06:09:13;;;;;;;12.10;5.07;;;;;;;17.86;73.81;102186.91;10440703;28;20124;-80
2022/06/17 06:14:13;;;;;;;7.35;4.50;;;;;;;17.59;77.73;102199.13;10423988;28;20128;-79
2022/06/17 06:19:14;;;;;;;8.20;4.82;;;;;;;17.75;77.96;102183.84;10418939;28;20060;-81
2022/06/17 06:24:14;;;;;;;8.57;4.80;;;;;;;18.84;71.93;102162.22;10439617;28;20049;-81
2022/06/17 06:29:15;;;;;;;6.85;4.75;;;;;;;19.87;62.50;102158.41;10422899;28;20488;-82
2022/06/17 06:34:20;;;;;;;6.27;4.43;;;;;;;22.11;56.00;102134.72;10472061;28;20041;-82
2022/06/17 06:39:20;;;;;;;5.75;3.75;;;;;;;23.80;50.30;102161.56;10464308;28;20492;-80
2022/06/17 06:44:21;;;;;;;7.00;3.83;;;;;;;24.46;47.12;102153.47;10459073;28;20078;-79
2022/06/17 06:49:21;;;;;;;11.17;3.83;;;;;;;24.04;45.74;102154.78;10395769;28;20439;-78
2022/06/17 06:54:24;;;;;;;9.87;4.10;;;;;;;23.28;50.69;102153.72;10446022;28;20041;-80
2022/06/17 06:59:25;;;;;;;7.57;3.75;;;;;;;22.65;49.17;102142.84;10426403;28;20073;-78
2022/06/17 07:04:26;;;;;;;6.00;3.33;;;;;;;21.95;50.59;102155.72;10450552;28;20033;-79
2022/06/17 07:09:26;;;;;;;7.63;3.73;;;;;;;21.62;50.98;102172.75;10446263;28;20041;-81
2022/06/17 07:14:27;;;;;;;8.67;3.93;;;;;;;21.55;52.18;102174.38;10444238;28;20434;-78
2022/06/17 07:19:27;;;;;;;6.23;4.97;;;;;;;21.48;53.30;102174.19;10446244;28;20136;-83
2022/06/17 07:24:28;;;;;;;9.03;3.53;;;;;;;21.88;52.86;102174.22;10418325;28;20051;-79
2022/06/17 07:29:28;;;;;;;6.67;3.27;;;;;;;22.88;50.29;102176.19;10451652;28;20068;-78
2022/06/17 07:34:29;;;;;;;7.40;3.80;;;;;;;25.14;43.75;102177.28;10434681;28;20037;-79
2022/06/17 07:44:48;;;;;;;8.15;4.05;;;;;;;28.18;36.36;102162.53;10491034;28;20036;-79
2022/06/17 07:49:50;;;;;;;5.95;3.83;;;;;;;27.94;36.33;102146.50;10482949;28;20037;-80
2022/06/17 08:00:24;;;;;;;7.35;3.20;;;;;;;29.14;36.51;102164.53;10444163;28;20033;-81
2022/06/17 08:05:25;;;;;;;8.35;3.20;;;;;;;29.30;33.92;102155.38;10385079;28;20125;-81
2022/06/17 08:10:26;;;;;;;;;;;;;;;29.38;34.70;102149.00;10447336;28;20044;-77
2022/06/17 08:15:27;;;;;;;7.60;3.40;;;;;;;29.11;34.88;102135.81;10446231;28;20377;-77
2022/06/17 08:20:28;;;;;;;;;;;;;;;29.50;33.79;102143.50;10443245;28;20056;-78
2022/06/17 08:25:30;;;;;;;9.73;4.10;;;;;;;29.97;34.15;102142.91;10454392;28;19935;-82
2022/06/17 08:30:34;;;;;;;6.55;2.92;;;;;;;30.69;34.13;102141.00;10445837;28;20048;-80
2022/06/17 08:35:37;;;;;;;8.55;4.03;;;;;;;31.84;32.43;102136.16;10483710;28;20036;-81
2022/06/17 08:40:53;;;;;;;9.02;4.35;;;;;;;31.72;31.42;102145.41;10454752;28;20033;-78
2022/06/17 08:46:39;;;;;;;7.72;3.42;;;;;;;31.67;31.56;102139.19;10480928;28;20036;-80
2022/06/17 08:51:42;;;;;;;7.95;4.45;;;;;;;32.64;27.96;102154.19;10487300;28;20109;-80
2022/06/17 08:57:06;;;;;;;6.63;3.10;;;;;;;32.67;28.41;102137.84;10504829;28;20051;-79
2022/06/17 09:02:31;;;;;;;6.97;4.25;;;;;;;31.92;29.75;102150.41;10467379;28;20037;-78
2022/06/17 09:07:36;;;;;;;7.13;3.42;;;;;;;30.36;31.03;102140.59;10471367;28;20092;-78
2022/06/17 09:12:53;;;;;;;7.25;3.55;;;;;;;30.81;31.81;102130.88;10460992;28;20050;-78
2022/06/17 09:18:19;;;;;;;6.90;3.58;;;;;;;30.85;32.69;102121.81;10443534;28;20068;-79
2022/06/17 09:23:22;;;;;;;4.97;3.03;;;;;;;31.61;30.32;102126.69;10393178;28;20044;-77
2022/06/17 09:28:40;;;;;;;7.55;3.47;;;;;;;32.23;30.26;102135.28;10388335;28;20491;-77
2022/06/17 09:33:55;;;;;;;10.25;5.30;;;;;;;32.81;28.36;102124.81;10437143;28;20596;-79
2022/06/17 09:39:00;;;;;;;8.18;4.20;;;;;;;32.95;29.32;102113.66;10443196;28;20040;-77
2022/06/17 09:44:07;;;;;;;6.38;3.53;;;;;;;33.68;28.69;102108.88;10465779;28;20036;-79
2022/06/17 09:49:19;;;;;;;8.23;4.43;;;;;;;33.07;27.25;102135.94;10485827;28;20052;-74
2022/06/17 09:54:25;;;;;;;7.13;4.20;;;;;;;32.78;27.99;102126.75;10467036;28;20377;-76
2022/06/17 09:59:27;;;;;;;6.53;4.55;;;;;;;32.78;27.56;102119.50;10422749;28;20041;-76
2022/06/17 10:04:28;;;;;;;8.77;4.03;;;;;;;33.34;29.67;102120.72;10463914;28;20496;-75
2022/06/17 10:10:09;;;;;;;9.15;4.45;;;;;;;33.90;25.64;102116.38;10455968;28;20056;-77
2022/06/17 10:15:28;;;;;;;5.63;2.78;;;;;;;33.86;25.65;102105.66;10402732;28;20048;-78
2022/06/17 10:20:40;;;;;;;9.80;3.05;;;;;;;33.51;28.77;102116.66;10499904;28;21279;-77
2022/06/17 10:26:09;;;;;;;4.25;2.70;;;;;;;33.68;27.68;102114.31;10490467;28;20461;-77
2022/06/17 10:31:14;;;;;;;6.57;2.67;;;;;;;34.11;24.21;102093.13;10470715;28;20045;-77
2022/06/17 10:36:16;;;;;;;5.65;2.85;;;;;;;34.97;26.48;102092.94;10486634;28;20037;-78
2022/06/17 10:41:17;;;;;;;6.30;3.40;;;;;;;34.02;27.22;102089.78;10473355;28;20504;-77
2022/06/17 10:46:21;;;;;;;5.97;3.00;;;;;;;34.84;24.05;102084.34;10449633;28;20459;-80
2022/06/17 10:51:22;;;;;;;3.47;2.20;;;;;;;34.57;24.09;102078.97;10491714;28;20127;-77
2022/06/17 10:56:26;;;;;;;4.95;2.85;;;;;;;34.61;24.57;102067.03;10447097;28;20037;-77
2022/06/17 11:01:45;;;;;;;3.92;2.25;;;;;;;34.94;24.47;102076.75;10455906;28;20025;-77
2022/06/17 11:06:52;;;;;;;3.72;2.28;;;;;;;34.84;23.19;102066.19;10441871;28;20140;-78
2022/06/17 11:12:06;;;;;;;7.40;2.00;;;;;;;34.87;24.77;102076.09;10460405;28;20130;-76
2022/06/17 11:17:20;;;;;;;3.47;1.98;;;;;;;34.04;24.01;102050.81;10463026;28;20505;-77
2022/06/17 11:22:34;;;;;;;4.60;2.10;;;;;;;34.19;24.08;102057.53;10433975;28;20040;-75
2022/06/17 11:27:41;;;;;;;4.88;1.42;;;;;;;34.99;22.62;102061.19;10451790;28;20545;-73
2022/06/17 11:32:43;;;;;;;1.60;1.48;;;;;;;33.77;22.96;102047.13;10449776;28;20037;-78
2022/06/17 11:37:45;;;;;;;2.40;2.03;;;;;;;34.69;21.87;102045.00;10411619;28;20037;-76
2022/06/17 11:42:57;;;;;;;5.40;1.60;;;;;;;35.09;22.24;102035.41;10451074;28;20135;-78
2022/06/17 11:48:01;;;;;;;4.13;2.00;;;;;;;34.54;22.66;102019.28;10451875;28;20036;-77
2022/06/17 11:53:11;;;;;;;6.20;2.00;;;;;;;34.51;24.80;102036.56;10470007;28;20048;-76
2022/06/17 11:58:12;;;;;;;4.28;1.50;;;;;;;35.22;23.60;102018.63;10431569;28;20398;-77
2022/06/17 12:03:14;;;;;;;6.75;1.58;;;;;;;34.48;21.43;102014.94;10422207;28;20033;-78
2022/06/17 12:08:24;;;;;;;3.97;1.90;;;;;;;34.40;25.39;102017.00;10419132;28;20041;-80
2022/06/17 12:13:38;;;;;;;7.07;2.88;;;;;;;34.96;23.86;102004.16;10440403;28;20060;-80
2022/06/17 12:18:44;;;;;;;3.58;2.10;;;;;;;34.71;24.31;101999.63;10409683;28;20480;-80
2022/06/17 12:23:52;;;;;;;3.53;1.55;;;;;;;34.81;23.16;101994.75;10442781;28;20036;-80
2022/06/17 12:29:43;;;;;;;3.45;1.77;;;;;;;35.45;22.63;101976.91;10466697;28;20037;-80
2022/06/17 12:34:55;;;;;;;4.78;1.52;;;;;;;34.25;25.07;101981.28;10404338;28;20044;-79
2022/06/17 12:40:24;;;;;;;4.55;1.77;;;;;;;34.35;22.10;101973.72;10443247;28;20127;-81
2022/06/17 12:45:38;;;;;;;5.13;2.75;;;;;;;33.75;21.72;101973.00;10480834;28;20147;-79
2022/06/17 12:56:09;;;;;;;1.77;1.23;;;;;;;34.12;22.36;101963.63;10476431;28;20040;-81
2022/06/17 13:01:16;;;;;;;5.78;1.65;;;;;;;34.45;22.50;101967.94;10508262;28;20063;-81
2022/06/17 13:06:20;;;;;;;3.30;1.40;;;;;;;33.73;25.33;101950.44;10482410;28;20044;-81
2022/06/17 13:11:42;;;;;;;6.30;1.45;;;;;;;33.00;22.70;101941.84;10497002;28;20036;-81
2022/06/17 13:16:54;;;;;;;2.72;1.38;;;;;;;33.56;21.97;101938.31;10508298;28;20487;-81
2022/06/17 13:22:13;;;;;;;3.72;1.55;;;;;;;34.25;23.16;101936.94;10489665;28;20052;-82
2022/06/17 13:27:43;;;;;;;3.80;1.58;;;;;;;33.86;22.91;101926.50;10506926;28;20028;-81
2022/06/17 13:32:50;;;;;;;3.53;1.45;;;;;;;34.49;21.86;101918.88;10488487;28;20380;-81
2022/06/17 13:38:02;;;;;;;5.80;1.70;;;;;;;33.87;23.56;101912.00;10461612;28;20036;-80
2022/06/17 13:43:05;;;;;;;4.32;2.10;;;;;;;35.11;24.48;101913.84;10449610;28;20036;-80
2022/06/17 13:48:12;;;;;;;4.43;1.88;;;;;;;35.88;20.96;101922.53;10447635;28;20492;-80
2022/06/17 13:53:27;;;;;;;4.07;1.65;;;;;;;35.32;22.50;101905.75;10478180;28;20048;-81
2022/06/17 13:58:54;;;;;;;3.55;1.35;;;;;;;34.61;25.49;101903.97;10444950;28;20576;-80
2022/06/17 14:03:54;;;;;;;5.82;1.42;;;;;;;33.85;25.47;101901.16;10432437;28;20430;-81
2022/06/17 14:08:59;;;;;;;3.17;1.98;;;;;;;33.81;23.47;101885.94;10479942;28;20045;-82
2022/06/17 14:14:18;;;;;;;3.28;1.25;;;;;;;32.70;26.42;101891.16;10449372;28;20039;-81
2022/06/17 14:19:19;;;;;;;5.72;1.77;;;;;;;33.35;24.68;101891.06;10481923;28;20420;-80
2022/06/17 14:24:38;;;;;;;;;;;;;;;33.24;25.85;101886.84;10464573;28;20036;-80
2022/06/17 14:29:38;;;;;;;3.50;1.65;;;;;;;33.39;25.90;101869.22;10482491;28;19924;-80
2022/06/17 14:34:50;;;;;;;;;;;;;;;32.59;27.39;101863.50;10399648;28;20037;-81
2022/06/17 14:39:53;;;;;;;5.88;2.15;;;;;;;32.45;26.96;101859.38;10423044;28;19917;-84
2022/06/17 14:45:02;;;;;;;3.53;1.85;;;;;;;32.47;26.89;101854.81;10397870;28;20033;-80
2022/06/17 14:50:18;;;;;;;2.08;1.05;;;;;;;32.16;27.01;101855.66;10439792;28;20127;-79
2022/06/17 14:55:22;;;;;;;3.05;1.40;;;;;;;31.96;27.44;101860.72;10455223;28;20497;-80
2022/06/17 15:00:24;;;;;;;7.97;1.40;;;;;;;31.71;27.69;101850.50;10428675;28;20504;-80
2022/06/17 15:05:31;;;;;;;5.43;1.63;;;;;;;31.53;29.83;101844.63;10441971;28;20534;-81
2022/06/17 15:10:34;;;;;;;4.47;1.50;;;;;;;31.34;27.42;101852.34;10464797;28;20041;-80
2022/06/17 15:15:37;;;;;;;2.83;1.67;;;;;;;30.99;28.47;101837.78;10450564;28;20045;-80
2022/06/17 15:20:39;;;;;;;3.47;1.50;;;;;;;30.41;28.52;101843.50;10453334;28;20119;-81
2022/06/17 15:26:14;;;;;;;3.20;1.45;;;;;;;29.96;31.28;101831.72;10467253;28;20094;-80
2022/06/17 15:31:20;;;;;;;3.08;1.17;;;;;;;30.01;29.82;101831.66;10457571;28;20040;-80
2022/06/17 15:36:32;;;;;;;2.45;1.35;;;;;;;29.84;31.15;101831.94;10468075;28;20160;-80
2022/06/17 15:41:34;;;;;;;2.75;1.40;;;;;;;29.86;32.81;101822.03;10467377;28;20049;-80
2022/06/17 15:46:37;;;;;;;9.38;2.90;;;;;;;29.76;30.03;101815.88;10477593;28;20489;-80
2022/06/17 15:51:40;;;;;;;5.68;1.95;;;;;;;29.80;31.00;101805.94;10415600;28;20041;-78
2022/06/17 15:56:42;;;;;;;7.93;2.63;;;;;;;29.84;31.08;101802.28;10427336;28;20068;-82
2022/06/17 16:01:47;;;;;;;30.52;23.38;;;;;;;29.85;31.03;101795.97;10412903;28;20044;-79
2022/06/17 16:06:58;;;;;;;4.95;1.77;;;;;;;29.74;30.73;101798.84;10442175;28;20392;-85
2022/06/17 16:12:37;;;;;;;3.83;2.03;;;;;;;29.53;31.46;101801.00;10395338;28;20049;-82
2022/06/17 16:17:39;;;;;;;5.65;1.40;;;;;;;29.40;32.16;101802.13;10483711;28;20044;-81
2022/06/17 16:22:41;;;;;;;8.43;1.67;;;;;;;29.24;33.49;101801.47;10468036;28;20033;-82
2022/06/17 16:28:01;;;;;;;5.18;1.52;;;;;;;29.23;32.67;101788.91;10469513;28;20424;-80
2022/06/17 16:33:04;;;;;;;3.87;1.93;;;;;;;29.26;32.50;101787.03;10469400;28;20515;-80
2022/06/17 16:38:05;;;;;;;2.13;1.30;;;;;;;29.23;33.12;101789.78;10468725;28;20523;-82
2022/06/17 16:48:44;;;;;;;1.98;1.20;;;;;;;28.91;33.15;101793.84;10392000;28;20064;-83
2022/06/17 16:53:45;;;;;;;2.17;1.27;;;;;;;28.84;34.42;101790.38;10372210;28;20119;-83
2022/06/17 16:58:45;;;;;;;2.00;1.13;;;;;;;28.82;33.41;101781.44;10442381;28;20619;-81
2022/06/17 17:03:46;;;;;;;5.97;4.23;;;;;;;28.75;34.07;101779.69;10466017;28;20074;-80
2022/06/17 17:08:47;;;;;;;8.27;2.13;;;;;;;28.61;34.41;101770.91;10423814;28;20045;-78
2022/06/17 17:13:48;;;;;;;5.65;2.28;;;;;;;28.50;34.27;101773.75;10439103;28;20041;-80
2022/06/17 17:18:48;;;;;;;4.17;1.33;;;;;;;28.38;36.13;101761.34;10441134;28;20124;-79
2022/06/17 17:23:49;;;;;;;3.70;1.73;;;;;;;28.21;35.62;101757.06;10425236;28;20072;-78
2022/06/17 17:28:50;;;;;;;2.30;1.35;;;;;;;28.04;36.94;101748.28;10423670;28;20041;-79
2022/06/17 17:33:51;;;;;;;13.40;1.70;;;;;;;27.88;38.20;101739.47;10415457;28;20049;-78
2022/06/17 17:38:51;;;;;;;15.97;12.37;;;;;;;27.70;40.42;101736.06;10443331;28;20132;-79
2022/06/17 17:44:01;;;;;;;4.43;3.13;;;;;;;27.44;43.44;101730.94;10411226;28;20048;-78
2022/06/17 17:49:02;;;;;;;3.78;2.33;;;;;;;27.05;45.62;101739.28;10464496;28;20119;-79
2022/06/17 17:54:02;;;;;;;4.03;1.88;;;;;;;26.66;46.53;101736.84;10451863;28;20400;-80
2022/06/17 17:59:03;;;;;;;5.30;2.03;;;;;;;26.46;46.85;101736.94;10417414;28;20043;-80
2022/06/17 18:04:04;;;;;;;4.53;1.48;;;;;;;26.22;46.43;101733.47;10448084;28;20055;-80
2022/06/17 18:09:05;;;;;;;1.93;1.50;;;;;;;25.94;47.50;101730.84;10435994;28;20111;-80
2022/06/17 18:14:09;;;;;;;4.77;1.53;;;;;;;25.66;48.26;101728.22;10442473;28;20071;-80
2022/06/17 18:19:10;;;;;;;3.70;2.13;;;;;;;25.48;49.60;101722.00;10435932;28;20037;-80
2022/06/17 18:24:11;;;;;;;3.40;1.53;;;;;;;25.20;52.02;101719.28;10457474;28;20045;-80
2022/06/17 18:29:15;;;;;;;7.82;2.38;;;;;;;24.92;52.39;101716.59;10435174;28;20400;-80
2022/06/17 18:34:18;;;;;;;4.70;2.05;;;;;;;24.59;54.62;101715.59;10465396;28;20035;-80
2022/06/17 18:39:20;;;;;;;4.25;2.38;;;;;;;24.26;53.15;101722.63;10441998;28;20037;-79
2022/06/17 18:44:20;;;;;;;4.55;2.00;;;;;;;24.11;55.56;101723.47;10431781;28;20045;-80
2022/06/17 18:49:21;;;;;;;3.13;1.70;;;;;;;23.79;56.92;101728.56;10433134;28;20064;-78
2022/06/17 18:54:21;;;;;;;5.73;2.30;;;;;;;23.58;56.77;101727.53;10443202;28;20036;-80
2022/06/17 18:59:22;;;;;;;3.47;2.47;;;;;;;23.37;57.13;101730.97;10426754;28;20040;-80
2022/06/17 19:04:23;;;;;;;6.73;2.20;;;;;;;23.18;58.26;101736.97;10489470;28;20063;-80
2022/06/17 19:20:17;;;;;;;3.88;2.33;;;;;;;22.42;60.13;101736.16;10488396;28;20058;-80
2022/06/17 19:25:18;;;;;;;5.68;1.83;;;;;;;22.13;61.17;101733.13;10441006;28;20037;-80
2022/06/17 19:30:19;;;;;;;4.60;2.27;;;;;;;22.00;61.07;101734.72;10455630;28;20071;-80
2022/06/17 19:35:22;;;;;;;3.23;2.00;;;;;;;21.80;62.31;101735.34;10452587;28;20538;-80
2022/06/17 19:40:25;;;;;;;4.07;2.28;;;;;;;21.62;63.22;101738.56;10454378;28;20045;-80
2022/06/17 19:45:26;;;;;;;6.75;2.55;;;;;;;21.42;63.66;101739.13;10455227;28;20140;-80
2022/06/17 19:50:26;;;;;;;4.82;2.97;;;;;;;21.25;64.69;101732.63;10419112;28;20037;-80
2022/06/17 19:55:29;;;;;;;4.05;2.13;;;;;;;21.06;66.14;101729.66;10468729;28;20082;-80
2022/06/17 20:00:29;;;;;;;5.35;2.97;;;;;;;20.85;66.64;101738.16;10452807;28;20569;-80
2022/06/17 20:05:31;;;;;;;5.53;2.65;;;;;;;20.68;66.85;101730.72;10407510;28;20175;-80
2022/06/17 20:10:31;;;;;;;4.60;2.60;;;;;;;20.62;67.92;101740.31;10435569;28;20033;-80
2022/06/17 20:15:32;;;;;;;7.13;2.42;;;;;;;20.44;68.78;101743.50;10454013;28;20782;-80
2022/06/17 20:20:35;;;;;;;5.35;2.95;;;;;;;20.32;68.82;101752.09;10451764;28;20047;-80
2022/06/17 20:25:37;;;;;;;8.88;4.68;;;;;;;20.22;69.29;101737.75;10468058;28;20044;-78
2022/06/17 20:30:39;;;;;;;7.03;4.95;;;;;;;20.15;68.84;101742.00;10451335;28;20063;-77
2022/06/17 20:35:39;;;;;;;;;;;;;;;19.99;69.36;101734.56;10465806;28;20362;-80
2022/06/17 20:40:40;;;;;;;5.38;2.80;;;;;;;19.89;68.74;101739.66;10444814;28;19920;-79
2022/06/17 20:51:04;;;;;;;4.00;2.75;;;;;;;19.72;70.72;101731.28;10456357;28;20040;-79
2022/06/17 20:56:14;;;;;;;7.93;3.13;;;;;;;19.63;70.80;101728.41;10451630;28;20033;-79
2022/06/17 21:01:16;;;;;;;4.47;2.08;;;;;;;19.60;69.63;101723.91;10465690;28;20040;-78
2022/06/17 21:06:19;;;;;;;6.22;3.25;;;;;;;19.59;69.84;101719.47;10467429;28;20039;-79
2022/06/17 21:11:20;;;;;;;4.07;2.78;;;;;;;19.51;70.63;101716.63;10430715;28;20033;-79
2022/06/17 21:16:20;;;;;;;6.10;3.17;;;;;;;19.41;71.40;101716.34;10450534;28;20029;-79
2022/06/17 21:21:22;;;;;;;4.00;2.63;;;;;;;19.33;70.80;101716.19;10483794;28;20140;-79
2022/06/17 21:26:27;;;;;;;7.38;2.75;;;;;;;19.30;70.17;101711.69;10466090;28;20044;-79
2022/06/17 21:31:28;;;;;;;3.35;2.30;;;;;;;19.26;70.46;101712.47;10448793;28;20040;-79
2022/06/17 21:36:30;;;;;;;5.75;2.25;;;;;;;19.19;70.14;101713.16;10466775;28;20033;-79
2022/06/17 21:41:33;;;;;;;4.85;2.53;;;;;;;19.14;70.17;101713.06;10431734;28;20058;-79
2022/06/17 21:46:34;;;;;;;3.38;2.55;;;;;;;19.02;71.18;101704.78;10449632;28;20492;-79
2022/06/17 21:51:49;;;;;;;21.23;5.00;;;;;;;18.95;71.00;101706.31;10465564;28;20060;-79
2022/06/17 21:56:50;;;;;;;4.32;2.63;;;;;;;18.95;71.64;101705.44;10408378;28;20041;-79
2022/06/17 22:01:50;;;;;;;9.45;3.42;;;;;;;18.83;72.33;101698.97;10433188;28;20063;-79
2022/06/17 22:06:51;;;;;;;6.10;2.92;;;;;;;18.69;72.32;101695.03;10464551;28;20131;-79
2022/06/17 22:12:01;;;;;;;2.85;2.38;;;;;;;18.63;72.71;101696.66;10418419;28;20362;-79
2022/06/17 22:17:09;;;;;;;9.52;3.42;;;;;;;18.55;73.01;101690.25;10426423;28;20075;-79
2022/06/17 22:22:21;;;;;;;3.80;2.95;;;;;;;18.54;73.12;101690.19;10424690;28;20090;-79
2022/06/17 22:27:24;;;;;;;4.22;3.17;;;;;;;18.46;73.58;101687.34;10409581;28;20106;-79
2022/06/17 22:32:45;;;;;;;3.85;2.95;;;;;;;18.39;73.49;101688.03;10402841;28;20033;-79
2022/06/17 22:37:52;;;;;;;4.57;3.17;;;;;;;18.32;73.55;101679.91;10426792;28;20045;-79
2022/06/17 22:42:53;;;;;;;8.38;3.55;;;;;;;18.27;73.70;101676.22;10440119;28;20053;-79
2022/06/17 22:47:56;;;;;;;4.57;3.33;;;;;;;18.24;73.93;101670.84;10440373;28;20057;-79
2022/06/17 22:52:56;;;;;;;4.57;2.83;;;;;;;18.18;74.29;101668.88;10424325;28;20045;-79
2022/06/17 22:57:59;;;;;;;6.88;3.60;;;;;;;18.14;74.40;101672.28;10439625;28;20057;-79
2022/06/17 23:08:22;;;;;;;4.93;3.58;;;;;;;18.09;75.07;101663.31;10426907;28;20049;-79
2022/06/17 23:13:27;;;;;;;4.20;3.47;;;;;;;18.01;75.36;101665.75;10423519;28;20040;-79
2022/06/17 23:23:47;;;;;;;5.85;3.65;;;;;;;17.98;76.08;101659.41;10424898;28;20040;-79
2022/06/17 23:28:48;;;;;;;6.88;4.25;;;;;;;17.84;76.42;101654.59;10447841;28;20061;-79
2022/06/17 23:33:48;;;;;;;4.63;3.38;;;;;;;17.75;76.53;101652.59;10447062;28;20033;-79
2022/06/17 23:38:49;;;;;;;6.45;4.18;;;;;;;17.71;76.53;101650.72;10430467;28;20037;-79
2022/06/17 23:43:49;;;;;;;8.75;3.53;;;;;;;17.65;77.00;101639.94;10448342;28;20035;-78
2022/06/17 23:48:59;;;;;;;8.98;3.70;;;;;;;17.55;77.60;101636.09;10448133;28;20116;-78
2022/06/17 23:54:00;;;;;;;5.40;3.70;;;;;;;17.53;77.80;101639.56;10447123;28;20029;-79
2022/06/17 23:59:02;;;;;;;9.68;3.58;;;;;;;17.50;77.61;101640.34;10447733;28;20068;-79
